Regatta — V7DM3 — position and weather

sailwx.info

Track history (hours):
 
Tides and Currents Weather Stations Pressure Air Temp Water Temp Dewpoint Dewpoint Depression Visibility Wind Speed Wind Dir Waves Ship Positions

Regatta

Last reported at 2019-Mar-03 11:01 UTC. Time now 2019-Mar-22 12:44 UTC.
Position S 26°50' E 153°09'.
Warning: this ship's position is 19 days out of date.

Length 180 m; draft 5.7 m.

Type: Passenger vessel. MMSI: 538001664.

Date/timePositionNaut miles runAvg speedWind from/ knotsBaromVisibWave heightAir tempDewpointWater temp
2019-Mar-03 11:01S 26°50' E 153°09'014.2
2019-Mar-03 11:00S 26°50' E 153°09'816.0
2019-Mar-03 10:30S 26°57' E 153°12'816.7
2019-Mar-03 10:00S 27°04' E 153°18'714.3
2019-Mar-03 09:30S 27°11' E 153°19'816.6
2019-Mar-03 09:00S 27°18' E 153°13'612.7
2019-Mar-03 08:31S 27°23' E 153°10'3 6.9
2019-Mar-03 08:00S 27°26' E 153°07'3 5.6
2019-Mar-03 07:29S 27°27' E 153°04'0 0.0
2019-Mar-03 06:59S 27°26' E 153°04'0 0.0
2019-Mar-03 06:29S 27°26' E 153°04'0 0.0
2019-Mar-03 05:59S 27°26' E 153°04'0 0.0
2019-Mar-03 05:29S 27°26' E 153°04'0 0.0
2019-Mar-03 04:59S 27°26' E 153°04'0 0.0
2019-Mar-03 04:29S 27°27' E 153°04'0 0.0
2019-Mar-03 03:59S 27°27' E 153°04'0 0.0
2019-Mar-03 03:29S 27°27' E 153°04'0 0.0
2019-Mar-03 02:59S 27°27' E 153°04'0 0.0
2019-Mar-03 02:29S 27°27' E 153°04'0 0.0
2019-Mar-03 01:59S 27°27' E 153°04'0 0.0
2019-Mar-03 01:29S 27°27' E 153°04'0 0.0
2019-Mar-03 00:59S 27°26' E 153°04'0 0.0
2019-Mar-03 00:29S 27°27' E 153°04'0 0.0
2019-Mar-02 23:59S 27°27' E 153°04'0 0.0
2019-Mar-02 23:29S 27°27' E 153°04'0 0.0
2019-Mar-02 22:59S 27°27' E 153°04'0 0.0
2019-Mar-02 22:29S 27°27' E 153°04'0 0.0
2019-Mar-02 22:00S 27°26' E 153°04'0 0.8
2019-Mar-02 21:30S 27°27' E 153°05'3 5.6
2019-Mar-02 21:00S 27°26' E 153°08'3 6.6
2019-Mar-02 20:30S 27°23' E 153°10'510.8
2019-Mar-02 20:01S 27°18' E 153°13'714.5
2019-Mar-02 19:31S 27°15' E 153°20'714.8
2019-Mar-02 19:01S 27°07' E 153°21'714.9
2019-Mar-02 18:31S 27°02' E 153°15'816.0
2019-Mar-02 18:01S 26°54' E 153°11'1310.5
2019-Mar-02 16:44S 26°41' E 153°14'2411.4
2019-Mar-02 14:35S 26°53' E 153°39'111.6
2019-Mar-02 14:28S 26°54' E 153°39'511.3
2019-Mar-02 14:00S 26°59' E 153°40'712.6
2019-Mar-02 13:28S 27°06' E 153°41'612.5
2019-Mar-02 13:00S 27°12' E 153°42'1012.4
2019-Mar-02 12:10S 27°22' E 153°44'313.4
2019-Mar-02 11:58S 27°25' E 153°45'714.1
2019-Mar-02 11:28S 27°31' E 153°47'714.1
2019-Mar-02 11:00S 27°38' E 153°48'30014.8
2019-Mar-01 14:43S 32°33' E 152°49'417.6
2019-Mar-01 14:29S 32°37' E 152°47'817.1
2019-Mar-01 14:00S 32°44' E 152°41'916.9
2019-Mar-01 13:29S 32°51' E 152°34'816.6
2019-Mar-01 13:01S 32°57' E 152°28'815.8
2019-Mar-01 12:30S 33°03' E 152°22'815.6
2019-Mar-01 12:00S 33°09' E 152°16'3916.2
2019-Mar-01 09:36S 33°35' E 151°42'616.7
2019-Mar-01 09:13S 33°39' E 151°36'416.4
2019-Mar-01 09:00S 33°42' E 151°33'816.3
2019-Mar-01 08:30S 33°47' E 151°26'713.9
2019-Mar-01 08:01S 33°51' E 151°19'3 0.2
2019-Feb-28 20:16S 33°51' E 151°16'2 9.2
2019-Feb-28 20:00S 33°50' E 151°18'714.5
2019-Feb-28 19:30S 33°57' E 151°22'816.0
2019-Feb-28 19:01S 34°05' E 151°22'24115.6
2019-Feb-28 03:33S 37°52' E 149°44'115.4
2019-Feb-28 03:30S 37°52' E 149°43'816.9
2019-Feb-28 03:00S 37°58' E 149°35'816.7
2019-Feb-28 02:30S 38°03' E 149°27'917.1
2019-Feb-28 02:00S 38°09' E 149°19'917.4
2019-Feb-28 01:29S 38°15' E 149°10'1017.2
2019-Feb-28 00:56S 38°21' E 149°01'817.8
2019-Feb-28 00:30S 38°26' E 148°54'1117.5
2019-Feb-27 23:50S 38°34' E 148°43'817.7
2019-Feb-27 23:25S 38°39' E 148°35'717.1
2019-Feb-27 23:00S 38°42' E 148°27'1017.5
2019-Feb-27 22:27S 38°46' E 148°16'818.0
2019-Feb-27 22:00S 38°49' E 148°07'1217.2
2019-Feb-27 21:18S 38°53' E 147°52'617.2
2019-Feb-27 20:56S 38°55' E 147°44'1017.0
2019-Feb-27 20:20S 38°58' E 147°32'616.9
2019-Feb-27 19:57S 39°00' E 147°24'  
2019-Feb-25 10:49S 39°39' E 146°10'618.4
2019-Feb-25 10:30S 39°43' E 146°16'1018.2
2019-Feb-25 09:58S 39°49' E 146°26'2417.9
2019-Feb-25 08:39S 40°04' E 146°51'217.6
2019-Feb-25 08:30S 40°05' E 146°53'917.8
2019-Feb-25 08:00S 40°10' E 147°03'1117.8
2019-Feb-25 07:24S 40°16' E 147°14'717.6
2019-Feb-25 07:00S 40°21' E 147°22'817.3
2019-Feb-25 06:30S 40°25' E 147°31'917.4
2019-Feb-25 06:01S 40°29' E 147°41'3218.8
2019-Feb-25 04:17S 40°42' E 148°21'4717.6
2019-Feb-25 01:37S 40°59' E 149°18'217.1
2019-Feb-25 01:29S 40°60' E 149°21'1117.1
2019-Feb-25 00:49S 41°04' E 149°35'717.1
2019-Feb-25 00:26S 41°06' E 149°43'717.1
2019-Feb-25 00:00S 41°09' E 149°52'1517.2
2019-Feb-24 23:06S 41°16' E 150°11'516.9
2019-Feb-24 22:50S 41°17' E 150°17'1316.9
2019-Feb-24 22:03S 41°22' E 150°33'417.2
2019-Feb-24 21:48S 41°24' E 150°38'1216.9
2019-Feb-24 21:04S 41°28' E 150°54'  
2019-Feb-21 15:23S 46°34' E 167°51'514.2
2019-Feb-21 15:01S 46°36' E 167°58'714.0
2019-Feb-21 14:31S 46°39' E 168°08'714.4
2019-Feb-21 14:01S 46°41' E 168°17'714.5
2019-Feb-21 13:30S 46°42' E 168°28'816.1
2019-Feb-21 13:00S 46°41' E 168°40'917.3
2019-Feb-21 12:31S 46°44' E 168°52'917.6
2019-Feb-21 12:00S 46°44' E 169°05'918.1
2019-Feb-21 11:30S 46°43' E 169°18'  
Track history (hours):
 
Tides and Currents Weather Stations Pressure Air Temp Water Temp Dewpoint Dewpoint Depression Visibility Wind Speed Wind Dir Waves Ship Positions

Regatta

Last reported at 2019-Mar-03 11:01 UTC. Time now 2019-Mar-22 12:44 UTC.
Position S 26°50' E 153°09'.
Warning: this ship's position is 19 days out of date.

Length 180 m; draft 5.7 m.

Type: Passenger vessel. MMSI: 538001664.

Date/timePositionNaut miles runAvg speedWind from/ knotsBaromVisibWave heightAir tempDewpointWater temp
2019-Mar-03 11:01S 26°50' E 153°09'014.2
2019-Mar-03 11:00S 26°50' E 153°09'816.0
2019-Mar-03 10:30S 26°57' E 153°12'816.7
2019-Mar-03 10:00S 27°04' E 153°18'714.3
2019-Mar-03 09:30S 27°11' E 153°19'816.6
2019-Mar-03 09:00S 27°18' E 153°13'612.7
2019-Mar-03 08:31S 27°23' E 153°10'3 6.9
2019-Mar-03 08:00S 27°26' E 153°07'3 5.6
2019-Mar-03 07:29S 27°27' E 153°04'0 0.0
2019-Mar-03 06:59S 27°26' E 153°04'0 0.0
2019-Mar-03 06:29S 27°26' E 153°04'0 0.0
2019-Mar-03 05:59S 27°26' E 153°04'0 0.0
2019-Mar-03 05:29S 27°26' E 153°04'0 0.0
2019-Mar-03 04:59S 27°26' E 153°04'0 0.0
2019-Mar-03 04:29S 27°27' E 153°04'0 0.0
2019-Mar-03 03:59S 27°27' E 153°04'0 0.0
2019-Mar-03 03:29S 27°27' E 153°04'0 0.0
2019-Mar-03 02:59S 27°27' E 153°04'0 0.0
2019-Mar-03 02:29S 27°27' E 153°04'0 0.0
2019-Mar-03 01:59S 27°27' E 153°04'0 0.0
2019-Mar-03 01:29S 27°27' E 153°04'0 0.0
2019-Mar-03 00:59S 27°26' E 153°04'0 0.0
2019-Mar-03 00:29S 27°27' E 153°04'0 0.0
2019-Mar-02 23:59S 27°27' E 153°04'0 0.0
2019-Mar-02 23:29S 27°27' E 153°04'0 0.0
2019-Mar-02 22:59S 27°27' E 153°04'0 0.0
2019-Mar-02 22:29S 27°27' E 153°04'0 0.0
2019-Mar-02 22:00S 27°26' E 153°04'0 0.8
2019-Mar-02 21:30S 27°27' E 153°05'3 5.6
2019-Mar-02 21:00S 27°26' E 153°08'3 6.6
2019-Mar-02 20:30S 27°23' E 153°10'510.8
2019-Mar-02 20:01S 27°18' E 153°13'714.5
2019-Mar-02 19:31S 27°15' E 153°20'714.8
2019-Mar-02 19:01S 27°07' E 153°21'714.9
2019-Mar-02 18:31S 27°02' E 153°15'816.0
2019-Mar-02 18:01S 26°54' E 153°11'1310.5
2019-Mar-02 16:44S 26°41' E 153°14'2411.4
2019-Mar-02 14:35S 26°53' E 153°39'111.6
2019-Mar-02 14:28S 26°54' E 153°39'511.3
2019-Mar-02 14:00S 26°59' E 153°40'712.6
2019-Mar-02 13:28S 27°06' E 153°41'612.5
2019-Mar-02 13:00S 27°12' E 153°42'1012.4
2019-Mar-02 12:10S 27°22' E 153°44'313.4
2019-Mar-02 11:58S 27°25' E 153°45'714.1
2019-Mar-02 11:28S 27°31' E 153°47'714.1
2019-Mar-02 11:00S 27°38' E 153°48'30014.8
2019-Mar-01 14:43S 32°33' E 152°49'417.6
2019-Mar-01 14:29S 32°37' E 152°47'817.1
2019-Mar-01 14:00S 32°44' E 152°41'916.9
2019-Mar-01 13:29S 32°51' E 152°34'816.6
2019-Mar-01 13:01S 32°57' E 152°28'815.8
2019-Mar-01 12:30S 33°03' E 152°22'815.6
2019-Mar-01 12:00S 33°09' E 152°16'3916.2
2019-Mar-01 09:36S 33°35' E 151°42'616.7
2019-Mar-01 09:13S 33°39' E 151°36'416.4
2019-Mar-01 09:00S 33°42' E 151°33'816.3
2019-Mar-01 08:30S 33°47' E 151°26'713.9
2019-Mar-01 08:01S 33°51' E 151°19'3 0.2
2019-Feb-28 20:16S 33°51' E 151°16'2 9.2
2019-Feb-28 20:00S 33°50' E 151°18'714.5
2019-Feb-28 19:30S 33°57' E 151°22'816.0
2019-Feb-28 19:01S 34°05' E 151°22'24115.6
2019-Feb-28 03:33S 37°52' E 149°44'115.4
2019-Feb-28 03:30S 37°52' E 149°43'816.9
2019-Feb-28 03:00S 37°58' E 149°35'816.7
2019-Feb-28 02:30S 38°03' E 149°27'917.1
2019-Feb-28 02:00S 38°09' E 149°19'917.4
2019-Feb-28 01:29S 38°15' E 149°10'1017.2
2019-Feb-28 00:56S 38°21' E 149°01'817.8
2019-Feb-28 00:30S 38°26' E 148°54'1117.5
2019-Feb-27 23:50S 38°34' E 148°43'817.7
2019-Feb-27 23:25S 38°39' E 148°35'717.1
2019-Feb-27 23:00S 38°42' E 148°27'1017.5
2019-Feb-27 22:27S 38°46' E 148°16'818.0
2019-Feb-27 22:00S 38°49' E 148°07'1217.2
2019-Feb-27 21:18S 38°53' E 147°52'617.2
2019-Feb-27 20:56S 38°55' E 147°44'1017.0
2019-Feb-27 20:20S 38°58' E 147°32'616.9
2019-Feb-27 19:57S 39°00' E 147°24'  
2019-Feb-25 10:49S 39°39' E 146°10'618.4
2019-Feb-25 10:30S 39°43' E 146°16'1018.2
2019-Feb-25 09:58S 39°49' E 146°26'2417.9
2019-Feb-25 08:39S 40°04' E 146°51'217.6
2019-Feb-25 08:30S 40°05' E 146°53'917.8
2019-Feb-25 08:00S 40°10' E 147°03'1117.8
2019-Feb-25 07:24S 40°16' E 147°14'717.6
2019-Feb-25 07:00S 40°21' E 147°22'817.3
2019-Feb-25 06:30S 40°25' E 147°31'917.4
2019-Feb-25 06:01S 40°29' E 147°41'3218.8
2019-Feb-25 04:17S 40°42' E 148°21'4717.6
2019-Feb-25 01:37S 40°59' E 149°18'217.1
2019-Feb-25 01:29S 40°60' E 149°21'1117.1
2019-Feb-25 00:49S 41°04' E 149°35'717.1
2019-Feb-25 00:26S 41°06' E 149°43'717.1
2019-Feb-25 00:00S 41°09' E 149°52'1517.2
2019-Feb-24 23:06S 41°16' E 150°11'516.9
2019-Feb-24 22:50S 41°17' E 150°17'1316.9
2019-Feb-24 22:03S 41°22' E 150°33'417.2
2019-Feb-24 21:48S 41°24' E 150°38'1216.9
2019-Feb-24 21:04S 41°28' E 150°54'  
2019-Feb-21 15:23S 46°34' E 167°51'514.2
2019-Feb-21 15:01S 46°36' E 167°58'714.0
2019-Feb-21 14:31S 46°39' E 168°08'714.4
2019-Feb-21 14:01S 46°41' E 168°17'714.5
2019-Feb-21 13:30S 46°42' E 168°28'816.1
2019-Feb-21 13:00S 46°41' E 168°40'917.3
2019-Feb-21 12:31S 46°44' E 168°52'917.6
2019-Feb-21 12:00S 46°44' E 169°05'918.1
2019-Feb-21 11:30S 46°43' E 169°18'  

Dump ship's entire track history